Collierville, TN (38017)

12:45 PM CDT on August 22, 2014 (GMT -0500)
Wolf Ridge | Change Station
CLOSE
Current Station
Personal Weather Station
Location: Collierville, TN
Elevation: 292 ft
Nearby Weather Stations

Elev 292 ft 35.08 °N, 89.67 °W | Updated 10 minutes ago

Scattered Clouds
Scattered Clouds
94.5 °F
Feels Like 110 °F
N
4.2
Wind Variable Wind from South

Today
High -- | Low -- °F
--% Chance of Precip.
Yesterday
High -- | Low -- °F
Precip. -- in
6:23 AM 7:38 PM
Waning Crescent, 7% visible
Pressure 30.10 in
Visibility 8.0 miles
Clouds Few 15000 ft
Scattered Clouds 25000 ft
Heat Index 110 °F
Dew Point 77 °F
Humidity 58%
Rainfall 0.00 in
Snow Depth Not available.
UV 6 out of 12
Pollen 9.50 out of 12
Ozone Good
PM2.5 Moderate
Flu Activity Not available.
METAR KOLV 221550Z 22007KT 8SM FEW150 SCT250 31/26 A3010

More Conditions Fewer Conditions

Pressure 30.10 in
Visibility 8.0 miles
Clouds Few 15000 ft
Scattered Clouds 25000 ft
Heat Index 110 °F
Dew Point 77 °F
Humidity 58%
Rainfall 0.00 in
Snow Depth Not available.
UV 6 out of 12
Pollen 9.50 out of 12
Ozone Good
PM2.5 Moderate
Flu Activity Not available.
METAR KOLV 221550Z 22007KT 8SM FEW150 SCT250 31/26 A3010

More Conditions Fewer Conditions

10-Day Weather Forecast

Almanac

Astronomy

Aug. 22, 2014 Rise Set
Actual Time 6:23 AM CDT 7:38 PM CDT
Civil Twilight 5:57 AM CDT 8:05 PM CDT
Nautical Twilight 5:26 AM CDT 8:36 PM CDT
Astronomical Twilight 4:53 AM CDT 9:09 PM CDT
Moon 3:49 AM CDT 5:45 PM CDT
Length of Visible Light 14h 07m
Length of Day
13h 14m
Tomorrow will be 2m 2s shorter.
Waning Crescent, 7% of the Moon is Illuminated
Today
Waning Crescent
Aug 25
New
Sep 2
First Quarter
Sep 8
Full
Sep 15
Last Quarter

Today's Extremes

State Highs State Lows

Community

WunderPhotos

Upload Photos

1,746,206 photos uploaded!

WunderBlogs® & News

Nearby

Air Quality

  Air Quality AQ Index Pollutant
Yesterday Moderate
PM2.5
Yesterday Good
OZONE
Current Moderate
PM2.5
Current Good
OZONE
Friday Moderate
PM2.5
Friday Good
OZONE
Saturday Moderate
OZONE
Saturday Moderate
PM2.5

Snow Depth

Station Depth Elevation
No new snow has been reported.

Earthquake Activity

City Distance Mag. Time & Date
No recent earthquake activity has been reported nearby.
Minimum magnitude displayed is 2.5.

Coastal Water Temperatures

Place Temperature
No Stations Reporting

Nearby Weather Stations